Nearby METAR Reports

 

KSJC - San Jose, California, USA
Distance from station: NE 9mi, 14km
Updated: Mon, 18-Nov-2019 7:53pm CST
Few Clouds
Few Clouds
 Wind from calm
Wind: Calm
Temperature: 66°F , 19°C
Dew Point: 46°F , 8°C
Humidity: 49%
Barometer: 29.85 inHg , 1010.8 hPa
Clouds: Few Clouds
Visibility: 10 miles , 16 km
Cloud details: Few Clouds 7000 ft
2019/11/19 01:53 KSJC 190153Z 00000KT 10SM FEW070 19/08 A2985 RMK AO2 SLP106 T01940078 $
KNUQ - Moffett Nas/Mtn, California, USA
Distance from station: N 9mi, 14km
Updated: Mon, 18-Nov-2019 7:56pm CST

 
Barometer: 29.85 inHg , 1010.8 hPa
2019/11/19 01:56 KNUQ 190156Z A2985 RMK AO2 SLP112 PWINO $
 
KPAO - Palo Alto, California, USA
Distance from station: NNW 14mi, 23km
Updated: Mon, 18-Nov-2019 7:47pm CST
Clear
Clear
 Wind from varies
Wind: varies 3 mph , 6 km/h
Temperature: 63°F , 17°C
Dew Point: 52°F , 11°C
Humidity: 68%
Barometer: 29.85 inHg , 1010.8 hPa
Clouds: Clear
Visibility: 8 miles , 13 km
2019/11/19 01:47 KPAO 190147Z VRB03KT 8SM SKC 17/11 A2985
KRHV - San Jose/Reid, California, USA
Distance from station: ENE 12mi, 19km
Updated: Mon, 18-Nov-2019 7:47pm CST
Clear
Clear
 Wind from calm
Wind: Calm
Temperature: 64°F , 18°C
Dew Point: 46°F , 8°C
Humidity: 52%
Barometer: 29.85 inHg , 1010.8 hPa
Clouds: Clear
Visibility: 10 miles , 16 km
2019/11/19 01:47 KRHV 190147Z 00000KT 10SM SKC 18/08 A2985
 
KOAK - Oakland, California, USA
Distance from station: NNW 31mi, 50km
Updated: Mon, 18-Nov-2019 7:53pm CST
Few Clouds
Few Clouds
 Wind from NW
Wind: NW 9 mph , 15 km/h
Temperature: 64°F , 18°C
Dew Point: 52°F , 11°C
Humidity: 64%
Barometer: 29.85 inHg , 1010.8 hPa
Clouds: Few Clouds
Visibility: 10 miles , 16 km
Cloud details: Few Clouds 20000 ft
2019/11/19 01:53 KOAK 190153Z 31008KT 10SM FEW200 18/11 A2985 RMK AO2 SLP108 T01780111
KSQL - San Carlos Airpo, California, USA
Distance from station: NW 21mi, 34km
Updated: Mon, 18-Nov-2019 6:47pm CST
NOT Current
Haze, Few clouds
Haze, Few clouds
 Wind from calm
Wind: Calm
Temperature: 64°F , 18°C
Dew Point: 55°F , 13°C
Humidity: 73%
Barometer: 29.85 inHg , 1010.8 hPa
Summary: Haze
Clouds: Few Clouds
Visibility: 6 miles , 10 km
Cloud details: Few Clouds 12000 ft
2019/11/19 00:47 KSQL 190047Z 00000KT 6SM HZ FEW120 18/13 A2985 RMK LAST
 
KSFO - San Francisco, California, USA
Distance from station: NW 30mi, 49km
Updated: Mon, 18-Nov-2019 7:56pm CST
Few Clouds
Few Clouds
 Wind from W
Wind: W 22 mph , 35 km/h
Temperature: 59°F , 15°C
Dew Point: 52°F , 11°C
Humidity: 77%
Barometer: 29.85 inHg , 1010.8 hPa
Clouds: Few Clouds
Visibility: 9 miles , 14 km
Cloud details: Few Clouds 20000 ft
2019/11/19 01:56 KSFO 190156Z 28019KT 9SM FEW200 15/11 A2985 RMK AO2 SLP107 T01500106
KE16 - San Martin, California, USA
Distance from station: ESE 27mi, 43km
Updated: Thu, 14-Nov-2019 3:35am CST
NOT Current
Overcast
Overcast
 Wind from SE
Wind: SE 7 mph , 11 km/h
Temperature: 54°F , 12°C
Dew Point: 50°F , 10°C
Humidity: 88%
Barometer: 30.05 inHg , 1017.6 hPa
Clouds: Overcast
Visibility: 10 miles , 16 km
Cloud details: Overcast 1400 ft
2019/11/14 09:35 KE16 140935Z AUTO 13006KT 10SM OVC014 12/10 A3005 RMK AO2
 
KWVI - Watsonville, California, USA
Distance from station: SSE 27mi, 44km
Updated: Mon, 18-Nov-2019 7:53pm CST
Clear
Clear
 Wind from W
Wind: W 5 mph , 7 km/h
Temperature: 55°F , 13°C
Dew Point: 54°F , 12°C
Humidity: 94%
Barometer: 29.85 inHg , 1010.8 hPa
Clouds: Clear
Visibility: 10 miles , 16 km
2019/11/19 01:53 KWVI 190153Z AUTO 27004KT 10SM CLR 13/12 A2985 RMK AO2 SLP108 T01330117
KHAF - Half Moon Bay, California, USA
Distance from station: WNW 31mi, 50km
Updated: Mon, 18-Nov-2019 8:40pm CST
Mist, Partly cloudy
Mist, Partly cloudy
 Wind from NNW
Wind: NNW 14 mph , 22 km/h
Temperature: 55°F , 13°C
Dew Point: 54°F , 12°C
Humidity: 94%
Barometer: 29.88 inHg , 1011.9 hPa
Summary: Mist
Clouds: Partly cloudy
Visibility: 6 miles , 10 km
Cloud details: Partly cloudy 300 ft
2019/11/19 02:40 KHAF 190240Z AUTO 34012KT 6SM BR SCT003 13/12 A2988 RMK AO2
 
KHWD - Hayward, California, USA
Distance from station: N 28mi, 44km
Updated: Mon, 18-Nov-2019 7:54pm CST
Haze, Clear
Haze, Clear
 Wind from WNW
Wind: WNW 3 mph , 6 km/h
Temperature: 63°F , 17°C
Dew Point: 52°F , 11°C
Humidity: 68%
Barometer: 29.84 inHg , 1010.5 hPa
Summary: Haze
Clouds: Clear
Visibility: 6 miles , 10 km
2019/11/19 01:54 KHWD 190154Z 30003KT 6SM HZ CLR 17/11 A2984 RMK AO2 SLP115 T01670106
KLVK - Livermore, California, USA
Distance from station: NNE 31mi, 51km
Updated: Mon, 18-Nov-2019 7:53pm CST
Clear
Clear
 Wind from calm
Wind: Calm
Temperature: 63°F , 17°C
Dew Point: 46°F , 8°C
Humidity: 56%
Barometer: 29.84 inHg , 1010.5 hPa
Clouds: Clear
Visibility: 8 miles , 13 km
2019/11/19 01:53 KLVK 190153Z 00000KT 8SM CLR 17/08 A2984 RMK AO2 SLP103 T01720083